Time;durP1;ratioP1;P1;durP2;ratioP2;P2;SDS_P1;SDS_P2;PMS_P1;PMS_P2;Temp;Humidity;BMP_temperature;BMP_pressure;BME280_temperature;BME280_humidity;BME280_pressure;Samples;Min_cycle;Max_cycle;Signal;HPM_P1;HPM_P2
2022/07/26 00:01:50;;;;;;;;;;;563.30;1715.20;;;;;;5112728;28;19919;-56
2022/07/26 00:04:16;;;;;;;;;;;563.20;1715.20;;;;;;5112802;28;19912;-55
2022/07/26 00:06:42;;;;;;;;;;;563.20;1715.20;;;;;;5112754;28;19991;-54
2022/07/26 00:09:07;;;;;;;;;;;563.20;1715.20;;;;;;5112599;28;19921;-57
2022/07/26 00:11:33;;;;;;;;;;;563.20;1715.20;;;;;;5112485;28;20350;-56
2022/07/26 00:14:02;;;;;;;;;;;563.20;1715.20;;;;;;5112763;28;20242;-54
2022/07/26 00:16:28;;;;;;;;;;;563.60;1715.20;;;;;;5112744;28;19946;-54
2022/07/26 00:18:54;;;;;;;;;;;563.20;1715.20;;;;;;5112487;28;19951;-55
2022/07/26 00:21:19;;;;;;;;;;;538.50;1715.20;;;;;;5112542;28;19927;-55
2022/07/26 00:23:45;;;;;;;;;;;538.50;1689.60;;;;;;5112276;28;19912;-53
2022/07/26 00:26:10;;;;;;;;;;;538.50;1689.60;;;;;;5112877;28;20269;-54
2022/07/26 00:28:36;;;;;;;;;;;538.50;1689.60;;;;;;5112169;28;19911;-53
2022/07/26 00:31:02;;;;;;;;;;;538.50;1689.60;;;;;;5112291;28;19908;-53
2022/07/26 00:33:27;;;;;;;;;;;538.50;1689.60;;;;;;5112451;28;19908;-54
2022/07/26 00:35:53;;;;;;;;;;;538.30;1715.20;;;;;;5112027;28;19907;-54
2022/07/26 00:38:18;;;;;;;;;;;538.20;1740.80;;;;;;5112247;28;19908;-54
2022/07/26 00:40:44;;;;;;;;;;;538.20;1740.80;;;;;;5093655;28;19923;-54
2022/07/26 00:43:10;;;;;;;;;;;538.20;1740.80;;;;;;5111817;28;20289;-57
2022/07/26 00:45:35;;;;;;;;;;;538.20;1740.80;;;;;;5112034;28;19926;-54
2022/07/26 00:48:01;;;;;;;;;;;538.20;1740.80;;;;;;5111898;28;20339;-57
2022/07/26 00:50:26;;;;;;;;;;;538.10;1766.40;;;;;;5112022;28;19908;-57
2022/07/26 00:52:53;;;;;;;;;;;538.20;1740.80;;;;;;5112154;28;19934;-56
2022/07/26 00:55:19;;;;;;;;;;;538.20;1740.80;;;;;;5111872;28;19915;-55
2022/07/26 00:57:45;;;;;;;;;;;538.10;1766.40;;;;;;5111766;28;19947;-54
2022/07/26 01:00:16;;;;;;;;;;;537.90;1792.00;;;;;;5111627;28;19946;-57
2022/07/26 01:02:42;;;;;;;;;;;537.90;1792.00;;;;;;5111832;28;19933;-55
2022/07/26 01:05:08;;;;;;;;;;;537.80;1792.00;;;;;;5111718;28;19908;-54
2022/07/26 01:07:34;;;;;;;;;;;537.80;1817.60;;;;;;5111545;28;19907;-55
2022/07/26 01:10:00;;;;;;;;;;;537.80;1792.00;;;;;;5111588;28;19912;-57
2022/07/26 01:12:26;;;;;;;;;;;537.80;1766.40;;;;;;5111246;28;19937;-57
2022/07/26 01:14:51;;;;;;;;;;;537.70;1766.40;;;;;;5111559;28;19911;-57
2022/07/26 01:17:17;;;;;;;;;;;537.80;1766.40;;;;;;5111533;28;19907;-54
2022/07/26 01:19:42;;;;;;;;;;;537.80;1766.40;;;;;;5111426;28;20045;-54
2022/07/26 01:22:08;;;;;;;;;;;537.90;1740.80;;;;;;5111402;28;19916;-55
2022/07/26 01:24:33;;;;;;;;;;;537.90;1740.80;;;;;;5111238;28;19908;-54
2022/07/26 01:26:59;;;;;;;;;;;538.00;1740.80;;;;;;5111238;28;20380;-54
2022/07/26 01:29:24;;;;;;;;;;;538.00;1715.20;;;;;;5111142;28;19911;-54
2022/07/26 01:31:50;;;;;;;;;;;538.10;1740.80;;;;;;5111335;28;20354;-53
2022/07/26 01:34:16;;;;;;;;;;;538.10;1740.80;;;;;;5111297;28;19935;-54
2022/07/26 01:36:42;;;;;;;;;;;538.00;1766.40;;;;;;5111280;28;19914;-55
2022/07/26 01:39:07;;;;;;;;;;;538.00;1766.40;;;;;;5110801;28;20057;-54
2022/07/26 01:41:33;;;;;;;;;;;538.00;1766.40;;;;;;5112067;28;20330;-55
2022/07/26 01:43:59;;;;;;;;;;;538.00;1766.40;;;;;;5112717;28;19916;-54
2022/07/26 01:46:24;;;;;;;;;;;537.90;1766.40;;;;;;5112357;28;19961;-54
2022/07/26 01:48:50;;;;;;;;;;;537.80;1766.40;;;;;;5112656;28;19911;-54
2022/07/26 01:51:16;;;;;;;;;;;537.80;1766.40;;;;;;5112385;28;19958;-54
2022/07/26 01:53:44;;;;;;;;;;;537.70;1792.00;;;;;;5112189;28;20425;-54
2022/07/26 01:56:13;;;;;;;;;;;537.60;1766.40;;;;;;5112053;28;19930;-54
2022/07/26 01:58:39;;;;;;;;;;;537.70;1792.00;;;;;;5112462;28;19908;-54
2022/07/26 02:01:05;;;;;;;;;;;537.60;1792.00;;;;;;5111860;28;19930;-54
2022/07/26 02:03:31;;;;;;;;;;;537.60;1792.00;;;;;;5112291;28;19908;-54
2022/07/26 02:05:56;;;;;;;;;;;512.90;1766.40;;;;;;5112022;28;20372;-54
2022/07/26 02:08:22;;;;;;;;;;;537.60;1792.00;;;;;;5112271;28;20002;-54
2022/07/26 02:10:59;;;;;;;;;;;537.60;1792.00;;;;;;5111791;28;19919;-54
2022/07/26 02:13:26;;;;;;;;;;;537.70;1766.40;;;;;;5111907;28;19963;-54
2022/07/26 02:15:52;;;;;;;;;;;537.70;1766.40;;;;;;5112079;28;19915;-54
2022/07/26 02:18:17;;;;;;;;;;;537.70;1792.00;;;;;;5111828;28;19999;-54
2022/07/26 02:20:43;;;;;;;;;;;537.60;1792.00;;;;;;5111890;28;19938;-55
2022/07/26 02:23:08;;;;;;;;;;;512.80;1792.00;;;;;;5111907;28;19908;-54
2022/07/26 02:25:34;;;;;;;;;;;512.80;1792.00;;;;;;5111637;28;19908;-54
2022/07/26 02:28:00;;;;;;;;;;;512.70;1817.60;;;;;;5111734;28;20393;-54
2022/07/26 02:30:26;;;;;;;;;;;512.70;1817.60;;;;;;5111556;28;19955;-55
2022/07/26 02:32:51;;;;;;;;;;;512.70;1817.60;;;;;;5111759;28;19953;-57
2022/07/26 02:35:17;;;;;;;;;;;512.60;1843.20;;;;;;5111685;28;19908;-54
2022/07/26 02:37:42;;;;;;;;;;;512.70;1817.60;;;;;;5111730;28;19912;-54
2022/07/26 02:40:09;;;;;;;;;;;512.50;1843.20;;;;;;5111295;28;20373;-54
2022/07/26 02:42:34;;;;;;;;;;;512.50;1843.20;;;;;;5111402;28;19922;-54
2022/07/26 02:45:00;;;;;;;;;;;512.30;1868.80;;;;;;5111486;28;19999;-56
2022/07/26 02:47:25;;;;;;;;;;;512.30;1843.20;;;;;;5111342;28;19908;-55
2022/07/26 02:49:51;;;;;;;;;;;512.40;1843.20;;;;;;5111634;28;19960;-54
2022/07/26 02:52:17;;;;;;;;;;;512.30;1868.80;;;;;;5111271;28;19908;-56
2022/07/26 02:54:42;;;;;;;;;;;512.30;1868.80;;;;;;5111519;28;19964;-54
2022/07/26 02:57:08;;;;;;;;;;;512.20;1868.80;;;;;;5111058;28;19907;-53
2022/07/26 02:59:33;;;;;;;;;;;512.20;1843.20;;;;;;5111342;28;19915;-54
2022/07/26 03:01:59;;;;;;;;;;;512.00;1868.80;;;;;;5111210;28;19980;-54
2022/07/26 03:04:25;;;;;;;;;;;512.10;1868.80;;;;;;5111246;28;19912;-54
2022/07/26 03:06:50;;;;;;;;;;;487.30;1920.00;;;;;;5114611;28;20353;-54
2022/07/26 03:09:16;;;;;;;;;;;487.30;1894.40;;;;;;5115467;28;19933;-53
2022/07/26 03:11:42;;;;;;;;;;;512.00;1894.40;;;;;;5115434;28;19919;-53
2022/07/26 03:14:07;;;;;;;;;;;512.00;1894.40;;;;;;5115557;28;19965;-53
2022/07/26 03:16:33;;;;;;;;;;;487.30;1894.40;;;;;;5115462;28;19961;-54
2022/07/26 03:18:59;;;;;;;;;;;512.00;1894.40;;;;;;5115424;28;20311;-53
2022/07/26 03:21:25;;;;;;;;;;;487.30;1920.00;;;;;;5115133;28;20266;-53
2022/07/26 03:23:50;;;;;;;;;;;487.20;1920.00;;;;;;5115454;28;20032;-53
2022/07/26 03:26:16;;;;;;;;;;;487.30;1920.00;;;;;;5115031;28;19907;-54
2022/07/26 03:28:43;;;;;;;;;;;487.30;1920.00;;;;;;5115020;28;19912;-56
2022/07/26 03:31:09;;;;;;;;;;;487.30;1920.00;;;;;;5115224;28;19915;-54
2022/07/26 03:33:35;;;;;;;;;;;487.20;1920.00;;;;;;5115154;28;19907;-54
2022/07/26 03:36:00;;;;;;;;;;;487.30;1894.40;;;;;;5115257;28;19908;-54
2022/07/26 03:38:26;;;;;;;;;;;512.00;1894.40;;;;;;5114968;28;19908;-54
2022/07/26 03:40:51;;;;;;;;;;;512.00;1894.40;;;;;;5114894;28;19915;-54
2022/07/26 03:43:18;;;;;;;;;;;487.30;1894.40;;;;;;5114686;28;19912;-54
2022/07/26 03:45:44;;;;;;;;;;;512.20;1894.40;;;;;;5114716;28;19935;-54
2022/07/26 03:48:09;;;;;;;;;;;512.10;1920.00;;;;;;5114919;28;19914;-55
2022/07/26 03:50:35;;;;;;;;;;;512.00;1920.00;;;;;;5114692;28;20361;-56
2022/07/26 03:53:01;;;;;;;;;;;512.00;1945.60;;;;;;5114986;28;20266;-56
2022/07/26 03:58:10;;;;;;;;;;;512.00;1920.00;;;;;;5114694;28;20395;-56
2022/07/26 04:00:36;;;;;;;;;;;512.20;1920.00;;;;;;5114364;28;19924;-54
2022/07/26 04:03:01;;;;;;;;;;;512.20;1920.00;;;;;;5114723;28;20246;-54
2022/07/26 04:05:27;;;;;;;;;;;512.30;1920.00;;;;;;5114437;28;19911;-53
2022/07/26 04:07:53;;;;;;;;;;;512.40;1920.00;;;;;;5114385;28;20027;-54
2022/07/26 04:10:19;;;;;;;;;;;512.50;1894.40;;;;;;5114348;28;19915;-54
2022/07/26 04:12:44;;;;;;;;;;;512.60;1894.40;;;;;;5114207;28;19912;-54
2022/07/26 04:15:10;;;;;;;;;;;512.60;1894.40;;;;;;5114408;28;20320;-54
2022/07/26 04:17:36;;;;;;;;;;;512.70;1894.40;;;;;;5113451;28;19907;-54
2022/07/26 04:20:02;;;;;;;;;;;512.70;1894.40;;;;;;5114407;28;19985;-54
2022/07/26 04:22:27;;;;;;;;;;;512.70;1868.80;;;;;;5113994;28;20364;-54
2022/07/26 04:24:53;;;;;;;;;;;512.80;1868.80;;;;;;5114100;28;19994;-55
2022/07/26 04:27:18;;;;;;;;;;;512.80;1868.80;;;;;;5114245;28;20411;-54
2022/07/26 04:29:44;;;;;;;;;;;512.90;1868.80;;;;;;5113795;28;20322;-55
2022/07/26 04:32:10;;;;;;;;;;;512.90;1868.80;;;;;;5114090;28;20395;-54
2022/07/26 04:34:36;;;;;;;;;;;537.60;1894.40;;;;;;5113728;28;19911;-54
2022/07/26 04:37:01;;;;;;;;;;;537.60;1894.40;;;;;;5113937;28;20011;-54
2022/07/26 04:39:27;;;;;;;;;;;537.70;1868.80;;;;;;5113813;28;20387;-55
2022/07/26 04:41:52;;;;;;;;;;;537.70;1868.80;;;;;;5113596;28;20006;-54
2022/07/26 04:44:18;;;;;;;;;;;537.60;1894.40;;;;;;5113750;28;20003;-54
2022/07/26 04:46:43;;;;;;;;;;;537.60;1894.40;;;;;;5113583;28;19908;-54
2022/07/26 04:49:09;;;;;;;;;;;538.00;1868.80;;;;;;5113662;28;19908;-53
2022/07/26 04:51:35;;;;;;;;;;;537.90;1868.80;;;;;;5113699;28;19918;-55
2022/07/26 04:54:00;;;;;;;;;;;538.40;1843.20;;;;;;5113757;28;19952;-54
2022/07/26 04:56:26;;;;;;;;;;;640.60;1587.20;;;;;;5113286;28;20369;-53
2022/07/26 04:58:51;;;;;;;;;;;717.60;1382.40;;;;;;5113383;28;19908;-53
2022/07/26 05:01:17;;;;;;;;;;;768.90;1280.00;;;;;;5113107;28;19920;-54
2022/07/26 05:03:42;;;;;;;;;;;794.50;1228.80;;;;;;5113387;28;19908;-55
2022/07/26 05:06:08;;;;;;;;;;;845.20;1177.60;;;;;;5113559;28;19908;-55
2022/07/26 05:08:33;;;;;;;;;;;870.90;1100.80;;;;;;5113342;28;20319;-56
2022/07/26 05:10:59;;;;;;;;;;;921.70;1075.20;;;;;;5113325;28;20273;-55
2022/07/26 05:13:29;;;;;;;;;;;922.30;1049.60;;;;;;5112908;28;19923;-55
2022/07/26 05:15:55;;;;;;;;;;;947.40;998.40;;;;;;5094938;28;19912;-55
2022/07/26 05:18:20;;;;;;;;;;;947.40;998.40;;;;;;5113200;28;19907;-55
2022/07/26 05:20:46;;;;;;;;;;;948.10;972.80;;;;;;5112800;28;19996;-55
2022/07/26 05:23:11;;;;;;;;;;;973.10;998.40;;;;;;5113089;28;19908;-55
2022/07/26 05:25:38;;;;;;;;;;;973.70;972.80;;;;;;5112894;28;19914;-56
2022/07/26 05:28:03;;;;;;;;;;;998.60;972.80;;;;;;5112372;28;19907;-56
2022/07/26 05:30:29;;;;;;;;;;;998.70;972.80;;;;;;5111703;28;19935;-55
2022/07/26 05:32:55;;;;;;;;;;;;;;;;;;5112528;28;19915;-55
2022/07/26 05:35:20;;;;;;;;;;;1024.00;947.20;;;;;;5112888;28;19907;-56
2022/07/26 05:37:46;;;;;;;;;;;1024.20;947.20;;;;;;5112850;28;19958;-55
2022/07/26 05:40:12;;;;;;;;;;;1024.50;921.60;;;;;;5112686;28;19960;-55
2022/07/26 05:42:37;;;;;;;;;;;1024.40;947.20;;;;;;5112600;28;20006;-55
2022/07/26 05:45:04;;;;;;;;;;;1049.70;947.20;;;;;;5112373;28;19908;-58
2022/07/26 05:47:29;;;;;;;;;;;1050.30;921.60;;;;;;5112882;28;19908;-55
2022/07/26 05:49:55;;;;;;;;;;;1100.90;870.40;;;;;;5112423;28;20265;-55
2022/07/26 05:52:21;;;;;;;;;;;1101.10;870.40;;;;;;5112507;28;19994;-56
2022/07/26 05:54:47;;;;;;;;;;;1101.20;844.80;;;;;;5112387;28;19908;-56
2022/07/26 05:57:12;;;;;;;;;;;1101.50;844.80;;;;;;5112397;28;20286;-55
2022/07/26 05:59:38;;;;;;;;;;;1126.70;844.80;;;;;;5112339;28;19914;-56
2022/07/26 06:02:04;;;;;;;;;;;1127.00;844.80;;;;;;5111897;28;20381;-56
2022/07/26 06:04:29;;;;;;;;;;;1152.00;844.80;;;;;;5112425;28;20364;-56
2022/07/26 06:06:55;;;;;;;;;;;1152.00;844.80;;;;;;5112166;28;19999;-56
2022/07/26 06:09:23;;;;;;;;;;;1152.40;819.20;;;;;;5112102;28;20261;-56
2022/07/26 06:11:48;;;;;;;;;;;1152.90;793.60;;;;;;5111968;28;20016;-56
2022/07/26 06:14:14;;;;;;;;;;;;;;;;;;5111881;28;19917;-56
2022/07/26 06:16:40;;;;;;;;;;;1178.20;793.60;;;;;;5112547;28;19908;-56
2022/07/26 06:19:05;;;;;;;;;;;1203.30;768.00;;;;;;5112027;28;20353;-56
2022/07/26 06:21:31;;;;;;;;;;;1203.20;793.60;;;;;;5112113;28;20365;-55
2022/07/26 06:23:56;;;;;;;;;;;1203.60;768.00;;;;;;5112066;28;20319;-56
2022/07/26 06:26:22;;;;;;;;;;;1228.80;793.60;;;;;;5111992;28;20254;-56
2022/07/26 06:28:50;;;;;;;;;;;1203.80;742.40;;;;;;5111834;28;19931;-56
2022/07/26 06:31:18;;;;;;;;;;;1178.30;768.00;;;;;;5111543;28;19956;-56
2022/07/26 06:33:44;;;;;;;;;;;1203.60;768.00;;;;;;5111663;28;19908;-57
2022/07/26 06:36:09;;;;;;;;;;;1203.30;768.00;;;;;;5111602;28;19915;-56
2022/07/26 06:38:35;;;;;;;;;;;1203.20;768.00;;;;;;5111544;28;19911;-56
2022/07/26 06:41:00;;;;;;;;;;;1178.50;742.40;;;;;;5111132;28;19919;-56
2022/07/26 06:43:26;;;;;;;;;;;1203.60;768.00;;;;;;5111311;28;19911;-56
2022/07/26 06:45:52;;;;;;;;;;;1204.10;742.40;;;;;;5111440;28;19953;-56
2022/07/26 06:48:17;;;;;;;;;;;1228.80;742.40;;;;;;5111532;28;19908;-56
2022/07/26 06:50:43;;;;;;;;;;;1203.40;742.40;;;;;;5111568;28;19907;-58
2022/07/26 06:53:08;;;;;;;;;;;1177.60;768.00;;;;;;5111560;28;20265;-56
2022/07/26 06:55:34;;;;;;;;;;;1203.20;768.00;;;;;;5111379;28;20003;-56
2022/07/26 06:58:00;;;;;;;;;;;1178.20;742.40;;;;;;5111532;28;19958;-56
2022/07/26 07:00:25;;;;;;;;;;;1203.80;716.80;;;;;;5110913;28;19919;-56
2022/07/26 07:03:07;;;;;;;;;;;1203.40;742.40;;;;;;5047982;28;20145;-56
2022/07/26 07:05:32;;;;;;;;;;;1178.10;742.40;;;;;;5048705;28;20363;-56
2022/07/26 07:07:58;;;;;;;;;;;1177.70;742.40;;;;;;5048464;28;20325;-56
2022/07/26 07:10:23;;;;;;;;;;;1178.50;742.40;;;;;;5048269;28;19943;-57
2022/07/26 07:12:49;;;;;;;;;;;1203.40;742.40;;;;;;5048622;28;19986;-56
2022/07/26 07:15:14;;;;;;;;;;;1178.50;742.40;;;;;;5048300;28;19909;-56
2022/07/26 07:17:40;;;;;;;;;;;1229.20;716.80;;;;;;5048588;28;19987;-57
2022/07/26 07:20:05;;;;;;;;;;;1229.40;716.80;;;;;;5048378;28;19915;-58
2022/07/26 07:22:31;;;;;;;;;;;1203.80;716.80;;;;;;5048585;28;20353;-56
2022/07/26 07:24:57;;;;;;;;;;;1203.20;742.40;;;;;;5031884;28;19921;-56
2022/07/26 07:27:22;;;;;;;;;;;1203.60;742.40;;;;;;5048452;28;19970;-56
2022/07/26 07:29:48;;;;;;;;;;;1203.80;742.40;;;;;;5048292;28;19917;-56
2022/07/26 07:32:14;;;;;;;;;;;1229.50;716.80;;;;;;5048321;28;19909;-56
2022/07/26 07:34:39;;;;;;;;;;;1254.40;742.40;;;;;;5048329;28;19963;-56
2022/07/26 07:37:05;;;;;;;;;;;1254.60;742.40;;;;;;5048228;28;20035;-57
2022/07/26 07:39:30;;;;;;;;;;;1229.20;742.40;;;;;;5059834;28;19990;-56
2022/07/26 07:41:56;;;;;;;;;;;1203.60;742.40;;;;;;5110683;28;19915;-56
2022/07/26 07:44:21;;;;;;;;;;;1228.80;742.40;;;;;;5110903;28;20371;-56
2022/07/26 07:46:47;;;;;;;;;;;1203.90;716.80;;;;;;5110822;28;19908;-56
2022/07/26 07:49:13;;;;;;;;;;;1203.70;716.80;;;;;;5110934;28;19908;-56
2022/07/26 07:51:38;;;;;;;;;;;1254.50;716.80;;;;;;5111175;28;19954;-55
2022/07/26 07:54:04;;;;;;;;;;;1229.50;691.20;;;;;;5113895;28;20261;-55
2022/07/26 07:56:30;;;;;;;;;;;1254.50;716.80;;;;;;5114888;28;20000;-57
2022/07/26 07:58:55;;;;;;;;;;;1280.40;691.20;;;;;;5114546;28;20276;-56
2022/07/26 08:01:21;;;;;;;;;;;1306.20;665.60;;;;;;5114478;28;19926;-57
2022/07/26 08:03:47;;;;;;;;;;;1254.60;716.80;;;;;;5114476;28;20312;-56
2022/07/26 08:06:12;;;;;;;;;;;1280.20;691.20;;;;;;5114856;28;20329;-56
2022/07/26 08:08:38;;;;;;;;;;;1255.10;716.80;;;;;;5114378;28;19999;-56
2022/07/26 08:11:04;;;;;;;;;;;1306.20;665.60;;;;;;5114382;28;19911;-58
2022/07/26 08:13:30;;;;;;;;;;;1305.70;665.60;;;;;;5114453;28;19915;-56
2022/07/26 08:15:55;;;;;;;;;;;1229.70;716.80;;;;;;5095827;28;20003;-56
2022/07/26 08:18:21;;;;;;;;;;;1254.80;716.80;;;;;;5114324;28;19914;-56
2022/07/26 08:20:47;;;;;;;;;;;1254.40;742.40;;;;;;5114228;28;20322;-56
2022/07/26 08:23:13;;;;;;;;;;;1229.30;716.80;;;;;;5114250;28;19907;-56
2022/07/26 08:25:38;;;;;;;;;;;1254.80;716.80;;;;;;5114355;28;20003;-56
2022/07/26 08:28:04;;;;;;;;;;;1203.40;742.40;;;;;;5114139;28;19958;-56
2022/07/26 08:30:30;;;;;;;;;;;1152.60;768.00;;;;;;5114084;28;19908;-56
2022/07/26 08:32:56;;;;;;;;;;;1101.50;819.20;;;;;;5113835;28;19947;-55
2022/07/26 08:35:22;;;;;;;;;;;1050.30;844.80;;;;;;5114077;28;19935;-56
2022/07/26 08:37:47;;;;;;;;;;;1049.60;896.00;;;;;;5113935;28;20284;-56
2022/07/26 08:40:13;;;;;;;;;;;999.00;896.00;;;;;;5113982;28;19907;-56
2022/07/26 08:42:39;;;;;;;;;;;;;;;;;;5113940;28;19963;-56
2022/07/26 08:45:05;;;;;;;;;;;;;;;;;;5113515;28;20659;-56
2022/07/26 08:47:31;;;;;;;;;;;999.00;921.60;;;;;;5113902;28;19914;-56
2022/07/26 08:49:56;;;;;;;;;;;973.30;921.60;;;;;;5113478;28;19907;-55
2022/07/26 08:52:22;;;;;;;;;;;973.30;921.60;;;;;;5113781;28;19910;-56
2022/07/26 08:54:49;;;;;;;;;;;973.30;921.60;;;;;;5113608;28;19912;-56
2022/07/26 08:57:15;;;;;;;;;;;948.10;896.00;;;;;;5113490;28;19908;-56
2022/07/26 08:59:41;;;;;;;;;;;973.20;921.60;;;;;;5113650;28;20393;-55
2022/07/26 09:02:08;;;;;;;;;;;973.10;921.60;;;;;;5113023;28;19962;-55
2022/07/26 09:04:45;;;;;;;;;;;948.10;921.60;;;;;;5112967;28;19969;-55
2022/07/26 09:07:10;;;;;;;;;;;972.80;921.60;;;;;;5113333;28;19913;-55
2022/07/26 09:09:37;;;;;;;;;;;947.40;921.60;;;;;;5113311;28;20026;-55
2022/07/26 09:12:13;;;;;;;;;;;922.40;947.20;;;;;;5113248;28;19912;-56
2022/07/26 09:14:38;;;;;;;;;;;922.30;947.20;;;;;;5113158;28;20023;-56
2022/07/26 09:17:04;;;;;;;;;;;947.40;947.20;;;;;;5113022;28;19998;-57
2022/07/26 09:19:30;;;;;;;;;;;922.50;921.60;;;;;;5112669;28;20053;-55
2022/07/26 09:22:04;;;;;;;;;;;947.20;921.60;;;;;;5112680;28;20398;-56
2022/07/26 09:24:30;;;;;;;;;;;947.60;921.60;;;;;;5112440;27;20342;-55
2022/07/26 09:26:56;;;;;;;;;;;947.50;921.60;;;;;;5111995;28;19961;-55
2022/07/26 09:29:22;;;;;;;;;;;947.40;947.20;;;;;;5112098;28;19930;-54
2022/07/26 09:31:48;;;;;;;;;;;947.30;921.60;;;;;;5111738;28;20361;-55
2022/07/26 09:34:22;;;;;;;;;;;922.30;947.20;;;;;;5111795;28;19911;-56
2022/07/26 09:36:51;;;;;;;;;;;947.20;947.20;;;;;;5111742;28;19908;-57
2022/07/26 09:39:17;;;;;;;;;;;947.20;947.20;;;;;;5109385;28;19946;-56
2022/07/26 09:41:43;;;;;;;;;;;947.20;947.20;;;;;;5111834;28;19959;-55
2022/07/26 09:44:19;;;;;;;;;;;922.20;972.80;;;;;;5109714;28;20370;-55
2022/07/26 09:46:51;;;;;;;;;;;922.50;947.20;;;;;;5108384;28;19911;-56
2022/07/26 09:49:18;;;;;;;;;;;922.30;972.80;;;;;;5106990;28;20361;-57
2022/07/26 09:51:45;;;;;;;;;;;947.20;947.20;;;;;;5109665;28;20374;-55
2022/07/26 09:54:11;;;;;;;;;;;922.20;947.20;;;;;;5109642;28;19965;-55
2022/07/26 09:56:51;;;;;;;;;;;922.00;972.80;;;;;;5109015;28;19912;-56
2022/07/26 09:59:18;;;;;;;;;;;922.30;972.80;;;;;;5106650;28;19935;-55
2022/07/26 10:01:44;;;;;;;;;;;921.80;972.80;;;;;;5109209;28;20380;-55
2022/07/26 10:04:10;;;;;;;;;;;922.20;972.80;;;;;;5109588;28;19920;-56
2022/07/26 10:06:36;;;;;;;;;;;922.50;972.80;;;;;;5109334;28;19934;-52
2022/07/26 10:09:02;;;;;;;;;;;947.20;921.60;;;;;;5108543;28;20364;-54
2022/07/26 10:11:30;;;;;;;;;;;922.50;947.20;;;;;;5108921;28;19968;-56
2022/07/26 10:13:57;;;;;;;;;;;947.30;921.60;;;;;;5106369;28;19915;-54
2022/07/26 10:16:31;;;;;;;;;;;947.30;921.60;;;;;;5109079;28;19928;-54
2022/07/26 10:18:57;;;;;;;;;;;947.60;896.00;;;;;;5109808;28;20419;-55
2022/07/26 10:21:29;;;;;;;;;;;947.30;921.60;;;;;;5109752;28;19916;-56
2022/07/26 10:23:57;;;;;;;;;;;922.50;921.60;;;;;;5109543;28;19918;-55
2022/07/26 10:26:35;;;;;;;;;;;922.50;921.60;;;;;;5109757;28;20401;-55
2022/07/26 10:29:15;;;;;;;;;;;922.50;921.60;;;;;;5109591;28;19986;-54
2022/07/26 10:31:48;;;;;;;;;;;922.30;921.60;;;;;;5110099;28;19907;-54
2022/07/26 10:34:34;;;;;;;;;;;922.00;947.20;;;;;;5111696;28;19908;-56
2022/07/26 10:37:00;;;;;;;;;;;922.00;947.20;;;;;;5111004;28;19908;-55
2022/07/26 10:39:26;;;;;;;;;;;922.30;921.60;;;;;;5111598;28;20360;-56
2022/07/26 10:42:00;;;;;;;;;;;922.40;947.20;;;;;;5111497;28;19920;-55
2022/07/26 10:44:30;;;;;;;;;;;922.50;947.20;;;;;;5111398;28;19951;-55
2022/07/26 10:47:07;;;;;;;;;;;922.50;921.60;;;;;;5111451;28;19908;-56
2022/07/26 10:49:40;;;;;;;;;;;922.40;947.20;;;;;;5111581;28;20661;-55
2022/07/26 10:52:09;;;;;;;;;;;922.00;947.20;;;;;;5111347;28;19911;-55
2022/07/26 10:54:53;;;;;;;;;;;921.80;947.20;;;;;;5111435;28;19914;-55
2022/07/26 10:57:19;;;;;;;;;;;922.00;947.20;;;;;;5111488;28;19908;-55
2022/07/26 10:59:44;;;;;;;;;;;922.00;947.20;;;;;;5111234;28;19907;-57
2022/07/26 11:02:20;;;;;;;;;;;922.00;972.80;;;;;;5111140;28;19919;-55
2022/07/26 11:04:45;;;;;;;;;;;922.30;947.20;;;;;;5111176;28;19994;-55
2022/07/26 11:07:14;;;;;;;;;;;922.30;947.20;;;;;;5111317;28;19908;-56
2022/07/26 11:09:40;;;;;;;;;;;922.50;947.20;;;;;;5111366;28;19908;-55
2022/07/26 11:12:31;;;;;;;;;;;922.30;947.20;;;;;;5111031;28;20006;-56
2022/07/26 11:14:58;;;;;;;;;;;922.10;947.20;;;;;;5105915;28;19962;-55
2022/07/26 11:17:23;;;;;;;;;;;922.00;947.20;;;;;;5111058;28;19977;-56
2022/07/26 11:19:49;;;;;;;;;;;922.00;947.20;;;;;;5111386;28;19981;-55
2022/07/26 11:22:14;;;;;;;;;;;922.00;972.80;;;;;;5110910;28;19939;-57
2022/07/26 11:24:40;;;;;;;;;;;922.00;947.20;;;;;;5111193;28;19908;-56
2022/07/26 11:27:06;;;;;;;;;;;922.30;947.20;;;;;;5111050;28;19912;-55
2022/07/26 11:29:33;;;;;;;;;;;922.40;947.20;;;;;;5115182;28;19961;-55
2022/07/26 11:31:59;;;;;;;;;;;922.00;947.20;;;;;;5115439;28;19907;-55
2022/07/26 11:34:25;;;;;;;;;;;921.90;947.20;;;;;;5115243;28;20323;-56
2022/07/26 11:36:52;;;;;;;;;;;922.00;947.20;;;;;;5115169;28;19908;-55
2022/07/26 11:39:24;;;;;;;;;;;922.30;947.20;;;;;;5114832;28;19908;-55
2022/07/26 11:41:51;;;;;;;;;;;922.40;947.20;;;;;;5114787;28;20003;-56
2022/07/26 11:44:17;;;;;;;;;;;922.40;921.60;;;;;;5114727;28;19929;-55
2022/07/26 11:46:46;;;;;;;;;;;922.40;947.20;;;;;;5115024;28;19907;-56
2022/07/26 11:49:16;;;;;;;;;;;922.50;921.60;;;;;;5114814;28;19957;-56
2022/07/26 11:52:00;;;;;;;;;;;922.40;921.60;;;;;;5115050;28;19995;-55
2022/07/26 11:54:27;;;;;;;;;;;922.00;921.60;;;;;;5112353;28;19912;-57
2022/07/26 11:56:54;;;;;;;;;;;922.40;947.20;;;;;;5112642;28;20349;-56
2022/07/26 11:59:20;;;;;;;;;;;922.50;921.60;;;;;;5112613;28;20361;-59
2022/07/26 12:01:46;;;;;;;;;;;922.10;921.60;;;;;;5112172;28;19924;-58
2022/07/26 12:04:19;;;;;;;;;;;922.40;921.60;;;;;;5111482;28;19908;-58
2022/07/26 12:06:45;;;;;;;;;;;922.40;921.60;;;;;;5112431;28;19971;-59
2022/07/26 12:09:11;;;;;;;;;;;922.40;921.60;;;;;;5112421;28;19915;-59
2022/07/26 12:11:39;;;;;;;;;;;922.50;921.60;;;;;;5111190;28;19990;-59
2022/07/26 12:14:04;;;;;;;;;;;922.50;896.00;;;;;;5112108;28;19977;-59
2022/07/26 12:16:34;;;;;;;;;;;922.30;921.60;;;;;;5112156;28;20331;-59
2022/07/26 12:18:59;;;;;;;;;;;922.30;896.00;;;;;;5112291;28;20046;-58
2022/07/26 12:21:39;;;;;;;;;;;922.40;896.00;;;;;;5112052;28;20342;-58
2022/07/26 12:24:04;;;;;;;;;;;922.50;896.00;;;;;;5111694;28;20501;-58
2022/07/26 12:26:30;;;;;;;;;;;922.50;896.00;;;;;;5111874;28;19957;-58
2022/07/26 12:28:56;;;;;;;;;;;922.50;896.00;;;;;;5112120;28;19980;-57
2022/07/26 12:31:22;;;;;;;;;;;947.20;896.00;;;;;;5111998;28;19908;-58
2022/07/26 12:33:48;;;;;;;;;;;947.30;896.00;;;;;;5111712;28;20440;-58
2022/07/26 12:36:21;;;;;;;;;;;947.20;896.00;;;;;;5111766;28;19934;-59
2022/07/26 12:38:47;;;;;;;;;;;947.30;896.00;;;;;;5110554;28;20337;-57
2022/07/26 12:41:29;;;;;;;;;;;947.40;896.00;;;;;;5111726;28;19959;-58
2022/07/26 12:43:54;;;;;;;;;;;947.40;870.40;;;;;;5111743;28;19924;-56
2022/07/26 12:46:20;;;;;;;;;;;947.40;896.00;;;;;;5111836;28;19916;-59
2022/07/26 12:48:45;;;;;;;;;;;947.50;896.00;;;;;;5111400;28;19912;-59
2022/07/26 12:51:11;;;;;;;;;;;947.40;896.00;;;;;;5111174;28;19912;-58
2022/07/26 12:53:37;;;;;;;;;;;922.50;870.40;;;;;;5111770;28;19908;-59
2022/07/26 12:56:02;;;;;;;;;;;922.50;896.00;;;;;;5111726;28;20357;-58
2022/07/26 12:58:28;;;;;;;;;;;947.20;870.40;;;;;;5111335;28;20349;-58
2022/07/26 13:00:54;;;;;;;;;;;947.30;896.00;;;;;;5111315;28;19965;-58
2022/07/26 13:03:19;;;;;;;;;;;947.40;870.40;;;;;;5111117;28;20030;-58
2022/07/26 13:05:45;;;;;;;;;;;947.30;870.40;;;;;;5110953;28;19908;-58
2022/07/26 13:08:10;;;;;;;;;;;947.40;844.80;;;;;;5111335;28;20348;-57
2022/07/26 13:10:36;;;;;;;;;;;947.40;870.40;;;;;;5110964;28;19912;-57
2022/07/26 13:13:02;;;;;;;;;;;922.50;844.80;;;;;;5111486;28;19929;-58
2022/07/26 13:15:27;;;;;;;;;;;922.50;896.00;;;;;;5111007;28;19908;-57
2022/07/26 13:17:53;;;;;;;;;;;922.30;870.40;;;;;;5110757;28;19912;-57
2022/07/26 13:20:19;;;;;;;;;;;922.00;870.40;;;;;;5110938;28;19914;-58
2022/07/26 13:22:44;;;;;;;;;;;922.10;870.40;;;;;;5110763;28;19915;-58
2022/07/26 13:25:10;;;;;;;;;;;922.40;870.40;;;;;;5111048;28;19908;-58
2022/07/26 13:27:36;;;;;;;;;;;922.50;870.40;;;;;;5110745;28;20365;-58
2022/07/26 13:30:01;;;;;;;;;;;922.10;870.40;;;;;;5113031;28;19995;-57
2022/07/26 13:32:27;;;;;;;;;;;922.30;896.00;;;;;;5112665;28;19908;-58
2022/07/26 13:34:52;;;;;;;;;;;922.40;896.00;;;;;;5112934;28;19907;-58
2022/07/26 13:37:18;;;;;;;;;;;922.40;870.40;;;;;;5112715;28;20019;-58
2022/07/26 13:39:43;;;;;;;;;;;922.30;870.40;;;;;;5112627;28;20361;-59
2022/07/26 13:42:10;;;;;;;;;;;922.30;870.40;;;;;;5112612;28;19919;-58
2022/07/26 13:44:35;;;;;;;;;;;922.30;870.40;;;;;;5112763;28;19921;-58
2022/07/26 13:47:01;;;;;;;;;;;922.30;896.00;;;;;;5112645;28;20020;-58